Time;durP1;ratioP1;P1;durP2;ratioP2;P2;SDS_P1;SDS_P2;PMS_P1;PMS_P2;Temp;Humidity;BMP_temperature;BMP_pressure;BME280_temperature;BME280_humidity;BME280_pressure;Samples;Min_cycle;Max_cycle;Signal;HPM_P1;HPM_P2
2022/12/23 00:00:51;;;;;;;;;;;;;;;19.49;33.57;100757.37;102174;1326;61335;-80
2022/12/23 00:03:17;;;;;;;;;;;;;;;19.48;33.58;100754.23;102146;1326;73361;-80
2022/12/23 00:05:42;;;;;;;;;;;;;;;19.48;33.41;100756.75;102038;1333;60384;-80
2022/12/23 00:08:07;;;;;;;;;;;;;;;19.48;33.56;100761.05;102097;1328;61379;-80
2022/12/23 00:10:34;;;;;;;;;;;;;;;19.48;33.42;100763.71;102156;1324;61316;-80
2022/12/23 00:15:43;;;;;;;;;;;;;;;19.48;33.52;100771.24;102052;1327;71357;-80
2022/12/23 00:18:09;;;;;;;;;;;;;;;19.47;33.50;100771.07;101990;1327;61377;-80
2022/12/23 00:20:34;;;;;;;;;;;;;;;19.47;33.42;100771.80;102059;1326;61317;-80
2022/12/23 00:23:05;;;;;;;;;;;;;;;19.47;33.47;100767.17;102131;1326;59943;-80
2022/12/23 00:25:41;;;;;;;;;;;;;;;19.46;33.45;100767.73;102070;1333;73665;-80
2022/12/23 00:28:10;;;;;;;;;;;;;;;19.46;33.50;100769.00;102137;1326;75248;-81
2022/12/23 00:30:35;;;;;;;;;;;;;;;19.46;33.50;100768.48;102251;1329;61239;-81
2022/12/23 00:33:01;;;;;;;;;;;;;;;19.46;33.39;100766.32;102186;1326;61781;-81
2022/12/23 00:35:28;;;;;;;;;;;;;;;19.45;33.46;100767.81;102200;1330;61391;-81
2022/12/23 00:37:53;;;;;;;;;;;;;;;19.46;33.32;100765.46;102184;1332;61405;-81
2022/12/23 00:43:03;;;;;;;;;;;;;;;19.45;33.35;100757.13;102168;1330;60376;-81
2022/12/23 00:45:28;;;;;;;;;;;;;;;19.45;33.48;100750.88;102111;1332;61296;-81
2022/12/23 00:50:38;;;;;;;;;;;;;;;19.44;33.40;100739.33;102178;1329;61310;-81
2022/12/23 00:53:04;;;;;;;;;;;;;;;19.44;33.49;100737.00;102127;1326;61348;-81
2022/12/23 00:55:29;;;;;;;;;;;;;;;19.44;33.33;100733.10;102151;1326;61442;-81
2022/12/23 00:57:55;;;;;;;;;;;;;;;19.43;33.53;100731.52;102204;1324;61397;-81
2022/12/23 01:05:35;;;;;;;;;;;;;;;19.43;33.47;100732.23;102151;1332;61309;-81
2022/12/23 01:05:50;;;;;;;;;;;;;;;19.42;33.31;100729.06;102191;1326;61234;-81
2022/12/23 01:08:15;;;;;;;;;;;;;;;19.42;33.39;100726.95;102118;1329;61278;-81
2022/12/23 01:10:40;;;;;;;;;;;;;;;19.42;33.55;100725.34;102119;1327;61443;-81
2022/12/23 01:13:06;;;;;;;;;;;;;;;19.41;33.41;100715.75;102192;1326;61347;-81
2022/12/23 01:15:31;;;;;;;;;;;;;;;19.41;33.45;100712.90;102150;1326;61328;-81
2022/12/23 01:17:57;;;;;;;;;;;;;;;19.42;33.40;100705.04;102145;1326;61340;-81
2022/12/23 01:20:22;;;;;;;;;;;;;;;19.41;33.33;100703.64;102132;1329;61388;-81
2022/12/23 01:22:48;;;;;;;;;;;;;;;19.41;33.33;100701.70;102154;1329;61422;-81
2022/12/23 01:25:14;;;;;;;;;;;;;;;19.41;33.42;100697.98;102156;1330;61395;-81
2022/12/23 01:27:40;;;;;;;;;;;;;;;19.41;33.23;100700.65;102187;1319;61746;-81
2022/12/23 01:30:06;;;;;;;;;;;;;;;19.40;33.49;100701.37;102177;1326;61194;-81
2022/12/23 01:32:32;;;;;;;;;;;;;;;19.40;33.36;100701.39;102138;1326;61378;-81
2022/12/23 01:34:57;;;;;;;;;;;;;;;19.39;33.40;100697.69;102117;1326;61279;-81
2022/12/23 01:37:22;;;;;;;;;;;;;;;19.39;33.31;100701.79;102128;1333;61331;-81
2022/12/23 01:39:48;;;;;;;;;;;;;;;19.39;33.35;100699.70;102163;1326;61318;-81
2022/12/23 01:45:03;;;;;;;;;;;;;;;19.38;33.34;100700.25;102139;1327;73395;-81
2022/12/23 01:47:36;;;;;;;;;;;;;;;19.39;33.43;100694.89;102173;1326;75471;-81
2022/12/23 01:50:06;;;;;;;;;;;;;;;19.38;33.53;100691.34;102133;1327;61362;-81
2022/12/23 01:52:33;;;;;;;;;;;;;;;19.38;33.36;100683.16;102149;1328;61758;-81
2022/12/23 01:54:58;;;;;;;;;;;;;;;19.37;33.24;100680.69;102168;1326;73617;-81
2022/12/23 01:57:24;;;;;;;;;;;;;;;19.37;33.47;100674.09;102173;1326;61357;-81
2022/12/23 02:05:18;;;;;;;;;;;;;;;19.37;33.45;100677.86;102154;1331;73529;-81
2022/12/23 02:10:30;;;;;;;;;;;;;;;19.36;33.23;100666.89;102132;1326;61196;-81
2022/12/23 02:12:59;;;;;;;;;;;;;;;19.36;33.40;100668.13;102180;1323;61223;-81
2022/12/23 02:18:17;;;;;;;;;;;;;;;19.36;33.45;100660.64;102151;1326;74380;-81
2022/12/23 02:20:51;;;;;;;;;;;;;;;19.35;33.46;100664.41;102220;1326;61385;-81
2022/12/23 02:23:36;;;;;;;;;;;;;;;19.35;33.52;100659.61;102191;1317;61173;-81
2022/12/23 02:26:07;;;;;;;;;;;;;;;19.34;33.44;100659.65;102043;1329;71143;-81
2022/12/23 02:28:54;;;;;;;;;;;;;;;19.34;33.47;100658.08;102222;1325;75560;-81
2022/12/23 02:31:42;;;;;;;;;;;;;;;19.34;33.38;100657.90;102166;1326;61086;-81
2022/12/23 02:34:15;;;;;;;;;;;;;;;19.34;33.57;100658.97;102061;1326;61235;-82
2022/12/23 02:36:43;;;;;;;;;;;;;;;19.33;33.40;100657.06;102154;1326;73519;-82
2022/12/23 02:39:29;;;;;;;;;;;;;;;19.34;33.48;100654.70;102165;1326;74428;-82
2022/12/23 02:41:54;;;;;;;;;;;;;;;19.34;33.66;100654.35;102118;1333;60040;-82
2022/12/23 02:44:23;;;;;;;;;;;;;;;19.33;33.50;100654.92;102201;1323;61313;-82
2022/12/23 02:46:49;;;;;;;;;;;;;;;19.33;33.31;100654.23;102114;1332;72751;-82
2022/12/23 02:49:19;;;;;;;;;;;;;;;19.33;33.44;100650.65;102135;1329;61815;-82
2022/12/23 02:51:46;;;;;;;;;;;;;;;19.33;33.44;100649.40;102109;1320;61206;-82
2022/12/23 02:54:12;;;;;;;;;;;;;;;19.33;33.57;100649.95;102174;1326;61376;-82
2022/12/23 02:56:38;;;;;;;;;;;;;;;19.32;33.34;100653.56;102142;1322;61965;-81
2022/12/23 02:59:05;;;;;;;;;;;;;;;19.32;33.50;100656.98;102142;1327;61353;-81
2022/12/23 03:01:31;;;;;;;;;;;;;;;19.32;33.39;100658.06;102162;1332;61153;-81
2022/12/23 03:03:56;;;;;;;;;;;;;;;19.31;33.48;100660.39;102155;1326;61346;-81
2022/12/23 03:06:23;;;;;;;;;;;;;;;19.31;33.54;100659.02;102112;1327;61375;-81
2022/12/23 03:08:49;;;;;;;;;;;;;;;19.31;33.44;100662.02;102105;1329;61324;-81
2022/12/23 03:11:15;;;;;;;;;;;;;;;19.31;33.47;100657.77;102130;1329;61289;-81
2022/12/23 03:13:59;;;;;;;;;;;;;;;19.30;33.47;100656.73;102125;1326;61317;-81
2022/12/23 03:16:27;;;;;;;;;;;;;;;19.30;33.36;100657.62;102142;1326;71261;-81
2022/12/23 03:18:53;;;;;;;;;;;;;;;19.30;33.60;100661.40;102206;1326;73897;-81
2022/12/23 03:21:31;;;;;;;;;;;;;;;19.30;33.52;100664.09;102200;1326;61386;-81
2022/12/23 03:24:16;;;;;;;;;;;;;;;19.29;33.40;100670.54;102169;1332;61419;-81
2022/12/23 03:26:45;;;;;;;;;;;;;;;19.29;33.55;100665.92;102153;1324;73625;-81
2022/12/23 03:29:12;;;;;;;;;;;;;;;19.29;33.54;100661.66;102161;1326;74660;-81
2022/12/23 03:31:38;;;;;;;;;;;;;;;19.29;33.36;100658.96;102162;1326;60872;-81
2022/12/23 03:34:05;;;;;;;;;;;;;;;19.29;33.44;100658.44;102163;1324;61288;-81
2022/12/23 03:36:32;;;;;;;;;;;;;;;19.28;33.61;100659.20;102124;1326;61264;-81
2022/12/23 03:38:57;;;;;;;;;;;;;;;19.28;33.46;100655.82;102180;1330;75418;-81
2022/12/23 03:41:30;;;;;;;;;;;;;;;19.28;33.53;100652.44;102146;1326;61318;-81
2022/12/23 03:43:57;;;;;;;;;;;;;;;19.28;33.44;100647.63;102190;1325;61327;-81
2022/12/23 03:46:29;;;;;;;;;;;;;;;19.27;33.51;100643.18;102148;1326;73738;-81
2022/12/23 03:48:55;;;;;;;;;;;;;;;19.27;33.46;100636.59;102163;1326;75463;-81
2022/12/23 03:51:26;;;;;;;;;;;;;;;19.26;33.44;100624.31;102192;1332;61162;-81
2022/12/23 03:53:53;;;;;;;;;;;;;;;19.26;33.54;100617.91;102171;1325;61222;-81
2022/12/23 03:56:20;;;;;;;;;;;;;;;19.25;33.47;100614.73;102173;1326;72467;-81
2022/12/23 03:58:52;;;;;;;;;;;;;;;19.26;33.42;100615.42;102146;1327;75646;-81
2022/12/23 04:01:30;;;;;;;;;;;;;;;19.26;33.45;100618.10;102148;1326;61024;-81
2022/12/23 04:03:55;;;;;;;;;;;;;;;19.26;33.47;100623.45;102210;1326;61329;-81
2022/12/23 04:06:20;;;;;;;;;;;;;;;19.25;33.57;100631.38;102143;1324;61347;-81
2022/12/23 04:08:46;;;;;;;;;;;;;;;19.24;33.53;100640.50;102186;1326;61383;-81
2022/12/23 04:11:11;;;;;;;;;;;;;;;19.24;33.45;100641.98;102168;1324;61296;-81
2022/12/23 04:13:37;;;;;;;;;;;;;;;19.24;33.60;100644.63;102208;1330;61433;-81
2022/12/23 04:16:02;;;;;;;;;;;;;;;19.24;33.54;100642.50;102158;1326;61304;-81
2022/12/23 04:18:28;;;;;;;;;;;;;;;19.23;33.46;100623.64;102145;1330;61360;-81
2022/12/23 04:20:53;;;;;;;;;;;;;;;19.22;33.54;100614.38;102100;1324;61395;-81
2022/12/23 04:23:18;;;;;;;;;;;;;;;19.23;33.49;100630.62;102167;1326;61342;-81
2022/12/23 04:25:44;;;;;;;;;;;;;;;19.22;33.52;100636.16;102224;1332;61789;-81
2022/12/23 04:28:09;;;;;;;;;;;;;;;19.22;33.40;100634.08;102170;1326;61510;-81
2022/12/23 04:30:35;;;;;;;;;;;;;;;19.22;33.44;100631.93;102152;1329;61266;-82
2022/12/23 04:33:00;;;;;;;;;;;;;;;19.21;33.56;100634.81;102126;1328;61164;-82
2022/12/23 04:35:26;;;;;;;;;;;;;;;19.21;33.57;100633.56;102181;1317;61350;-82
2022/12/23 04:37:52;;;;;;;;;;;;;;;19.21;33.41;100633.77;102196;1326;61270;-82
2022/12/23 04:40:17;;;;;;;;;;;;;;;19.20;33.43;100638.98;102151;1326;61482;-81
2022/12/23 04:42:43;;;;;;;;;;;;;;;19.20;33.49;100630.97;102126;1325;61469;-81
2022/12/23 04:45:08;;;;;;;;;;;;;;;19.20;33.51;100616.52;102170;1330;61386;-81
2022/12/23 04:47:34;;;;;;;;;;;;;;;19.20;33.57;100621.68;102157;1326;61427;-81
2022/12/23 04:49:59;;;;;;;;;;;;;;;19.20;33.58;100616.90;102193;1326;61267;-81
2022/12/23 04:52:25;;;;;;;;;;;;;;;19.19;33.57;100620.48;102143;1326;61342;-81
2022/12/23 04:54:50;;;;;;;;;;;;;;;19.19;33.60;100637.45;102130;1326;61267;-81
2022/12/23 04:57:16;;;;;;;;;;;;;;;19.19;33.41;100642.46;102144;1323;61295;-81
2022/12/23 04:59:41;;;;;;;;;;;;;;;19.18;33.55;100637.33;102169;1325;61387;-81
2022/12/23 05:02:07;;;;;;;;;;;;;;;19.19;33.55;100634.82;102193;1325;61266;-81
2022/12/23 05:04:32;;;;;;;;;;;;;;;19.18;33.43;100633.95;102141;1329;61335;-81
2022/12/23 05:06:57;;;;;;;;;;;;;;;19.18;33.52;100635.38;102157;1326;61424;-81
2022/12/23 05:09:23;;;;;;;;;;;;;;;19.18;33.53;100638.09;102160;1326;61318;-81
2022/12/23 05:11:48;;;;;;;;;;;;;;;19.18;33.44;100642.73;102102;1329;61385;-81
2022/12/23 05:14:14;;;;;;;;;;;;;;;19.17;33.50;100641.85;102207;1333;61352;-81
2022/12/23 05:16:39;;;;;;;;;;;;;;;19.17;33.51;100642.95;102209;1319;61252;-81
2022/12/23 05:19:05;;;;;;;;;;;;;;;19.17;33.54;100646.17;102170;1319;61407;-81
2022/12/23 05:21:30;;;;;;;;;;;;;;;19.17;33.56;100639.39;102165;1330;59302;-81
2022/12/23 05:23:55;;;;;;;;;;;;;;;19.17;33.57;100637.09;102153;1326;61270;-81
2022/12/23 05:26:21;;;;;;;;;;;;;;;19.17;33.50;100632.09;102211;1333;61325;-81
2022/12/23 05:28:46;;;;;;;;;;;;;;;19.16;33.70;100644.10;102204;1326;61188;-81
2022/12/23 05:31:12;;;;;;;;;;;;;;;19.16;33.61;100657.67;102186;1326;61319;-81
2022/12/23 05:33:37;;;;;;;;;;;;;;;19.16;33.48;100650.55;102165;1326;61515;-81
2022/12/23 05:36:03;;;;;;;;;;;;;;;19.15;33.57;100649.69;102228;1329;61300;-81
2022/12/23 05:38:28;;;;;;;;;;;;;;;19.15;33.52;100663.26;102242;1326;59934;-81
2022/12/23 05:40:54;;;;;;;;;;;;;;;19.15;33.53;100668.08;102211;1329;61324;-81
2022/12/23 05:43:19;;;;;;;;;;;;;;;19.15;33.56;100660.21;102264;1333;61318;-81
2022/12/23 05:45:45;;;;;;;;;;;;;;;19.15;33.49;100647.39;102240;1327;59573;-81
2022/12/23 05:48:10;;;;;;;;;;;;;;;19.14;33.51;100669.36;102263;1324;61416;-81
2022/12/23 05:50:36;;;;;;;;;;;;;;;19.15;33.46;100694.86;102122;1326;61222;-81
2022/12/23 05:53:01;;;;;;;;;;;;;;;19.15;33.64;100693.75;102154;1333;61272;-81
2022/12/23 05:55:27;;;;;;;;;;;;;;;19.14;33.45;100689.86;102137;1326;61494;-81
2022/12/23 05:57:52;;;;;;;;;;;;;;;19.14;33.57;100685.07;102168;1326;61521;-81
2022/12/23 06:00:18;;;;;;;;;;;;;;;19.14;33.50;100675.09;102170;1316;60060;-81
2022/12/23 06:02:43;;;;;;;;;;;;;;;19.14;33.66;100674.56;102174;1332;61264;-81
2022/12/23 06:05:09;;;;;;;;;;;;;;;19.14;33.64;100672.96;102228;1326;61371;-81
2022/12/23 06:07:36;;;;;;;;;;;;;;;19.13;33.40;100673.52;102167;1326;61363;-81
2022/12/23 06:10:02;;;;;;;;;;;;;;;19.13;33.37;100683.37;102145;1329;61174;-81
2022/12/23 06:12:28;;;;;;;;;;;;;;;19.12;33.63;100682.30;102180;1324;61303;-81
2022/12/23 06:14:53;;;;;;;;;;;;;;;19.12;33.48;100687.67;102296;1326;61421;-81
2022/12/23 06:17:18;;;;;;;;;;;;;;;19.12;33.55;100688.41;102184;1329;61316;-81
2022/12/23 06:19:46;;;;;;;;;;;;;;;19.12;33.47;100683.80;102151;1329;72482;-81
2022/12/23 06:22:12;;;;;;;;;;;;;;;19.12;33.64;100679.17;102202;1317;75731;-81
2022/12/23 06:24:37;;;;;;;;;;;;;;;19.11;33.47;100668.65;102128;1333;61983;-81
2022/12/23 06:27:03;;;;;;;;;;;;;;;19.11;33.57;100657.75;102171;1329;61524;-81
2022/12/23 06:29:28;;;;;;;;;;;;;;;19.11;33.56;100648.69;102134;1329;61279;-81
2022/12/23 06:31:53;;;;;;;;;;;;;;;19.11;33.51;100649.92;102168;1327;61411;-81
2022/12/23 06:34:19;;;;;;;;;;;;;;;19.11;33.56;100652.45;102172;1326;73522;-81
2022/12/23 06:36:44;;;;;;;;;;;;;;;19.11;33.49;100664.59;102199;1326;61369;-81
2022/12/23 06:39:10;;;;;;;;;;;;;;;19.11;33.46;100661.18;102168;1327;61317;-81
2022/12/23 06:41:36;;;;;;;;;;;;;;;19.10;33.56;100646.42;102149;1326;62021;-81
2022/12/23 06:44:01;;;;;;;;;;;;;;;19.11;33.57;100670.46;102196;1326;61320;-81
2022/12/23 06:46:27;;;;;;;;;;;;;;;19.11;33.50;100677.98;102227;1329;75523;-81
2022/12/23 06:48:52;;;;;;;;;;;;;;;19.11;33.66;100667.98;102171;1333;61418;-81
2022/12/23 06:51:18;;;;;;;;;;;;;;;19.10;33.51;100667.13;102194;1326;61311;-81
2022/12/23 06:53:43;;;;;;;;;;;;;;;19.10;33.56;100668.70;102275;1326;61290;-81
2022/12/23 06:56:09;;;;;;;;;;;;;;;19.10;33.72;100680.51;102283;1332;61342;-81
2022/12/23 06:58:34;;;;;;;;;;;;;;;19.10;33.63;100708.84;102332;1326;74021;-81
2022/12/23 07:00:59;;;;;;;;;;;;;;;19.10;33.61;100687.44;102296;1327;61296;-81
2022/12/23 07:03:25;;;;;;;;;;;;;;;19.11;33.56;100661.56;102209;1331;60739;-81
2022/12/23 07:05:50;;;;;;;;;;;;;;;19.11;33.60;100653.34;102259;1326;61318;-81
2022/12/23 07:08:19;;;;;;;;;;;;;;;19.11;33.57;100660.82;102276;1333;61394;-81
2022/12/23 07:10:44;;;;;;;;;;;;;;;19.11;33.71;100664.91;102230;1324;74397;-81
2022/12/23 07:13:10;;;;;;;;;;;;;;;19.11;33.69;100668.65;102127;1326;61433;-81
2022/12/23 07:15:36;;;;;;;;;;;;;;;19.11;33.65;100670.63;102160;1329;61494;-81
2022/12/23 07:18:01;;;;;;;;;;;;;;;19.11;33.71;100671.70;102142;1329;61274;-81
2022/12/23 07:20:26;;;;;;;;;;;;;;;19.11;33.71;100678.11;102235;1333;61402;-80
2022/12/23 07:22:56;;;;;;;;;;;;;;;19.11;33.62;100679.20;102036;1332;73305;-80
2022/12/23 07:25:21;;;;;;;;;;;;;;;19.11;33.72;100690.45;102263;1332;61302;-81
2022/12/23 07:27:47;;;;;;;;;;;;;;;19.11;33.68;100684.91;102156;1329;61352;-81
2022/12/23 07:30:12;;;;;;;;;;;;;;;19.11;33.63;100672.45;102157;1327;61313;-81
2022/12/23 07:32:37;;;;;;;;;;;;;;;19.11;33.76;100684.04;102167;1330;61471;-81
2022/12/23 07:35:03;;;;;;;;;;;;;;;19.10;33.77;100674.98;102206;1333;61325;-81
2022/12/23 07:37:29;;;;;;;;;;;;;;;19.09;33.73;100682.66;102207;1333;61350;-81
2022/12/23 07:39:54;;;;;;;;;;;;;;;19.10;33.70;100697.11;102195;1324;61283;-81
2022/12/23 07:42:19;;;;;;;;;;;;;;;19.09;33.63;100692.69;102232;1326;61287;-81
2022/12/23 07:44:45;;;;;;;;;;;;;;;19.09;33.68;100700.34;102184;1329;61317;-81
2022/12/23 07:47:10;;;;;;;;;;;;;;;19.09;33.67;100713.73;102184;1326;61340;-81
2022/12/23 07:49:36;;;;;;;;;;;;;;;19.09;33.74;100712.84;102224;1326;61312;-81
2022/12/23 07:52:01;;;;;;;;;;;;;;;19.08;33.74;100708.44;102200;1326;61347;-81
2022/12/23 07:54:27;;;;;;;;;;;;;;;19.09;33.67;100706.98;102158;1316;61417;-81
2022/12/23 07:56:52;;;;;;;;;;;;;;;19.08;33.58;100702.19;102191;1326;61719;-81
2022/12/23 07:59:17;;;;;;;;;;;;;;;19.08;33.75;100702.03;102219;1327;61487;-81
2022/12/23 08:01:43;;;;;;;;;;;;;;;19.08;33.56;100702.23;102153;1326;61401;-81
2022/12/23 08:04:08;;;;;;;;;;;;;;;19.08;33.69;100702.93;102142;1333;61337;-81
2022/12/23 08:06:34;;;;;;;;;;;;;;;19.08;33.77;100702.60;102179;1332;61295;-81
2022/12/23 08:08:59;;;;;;;;;;;;;;;19.07;33.83;100707.81;102204;1332;61296;-81
2022/12/23 08:11:25;;;;;;;;;;;;;;;19.07;33.74;100703.55;102225;1326;61269;-81
2022/12/23 08:13:51;;;;;;;;;;;;;;;19.07;33.72;100708.73;102243;1329;61486;-81
2022/12/23 08:16:17;;;;;;;;;;;;;;;19.06;33.74;100720.51;102176;1323;61308;-81
2022/12/23 08:18:42;;;;;;;;;;;;;;;19.06;33.82;100720.52;101373;1332;1085434;-81
2022/12/23 08:21:14;;;;;;;;;;;;;;;19.06;33.84;100712.70;102166;1325;61484;-81
2022/12/23 08:23:42;;;;;;;;;;;;;;;19.05;33.70;100696.49;102172;1326;61303;-81
2022/12/23 08:26:07;;;;;;;;;;;;;;;19.05;33.85;100688.70;102167;1329;61384;-81
2022/12/23 08:28:33;;;;;;;;;;;;;;;19.04;33.83;100696.76;102182;1326;61281;-81
2022/12/23 08:31:05;;;;;;;;;;;;;;;19.04;33.74;100705.48;102202;1332;61318;-81
2022/12/23 08:33:31;;;;;;;;;;;;;;;19.04;33.83;100695.54;102172;1327;61373;-81
2022/12/23 08:35:56;;;;;;;;;;;;;;;19.04;33.86;100683.04;102198;1310;61808;-81
2022/12/23 08:38:21;;;;;;;;;;;;;;;19.03;33.79;100687.70;102182;1332;61373;-81
2022/12/23 08:40:47;;;;;;;;;;;;;;;19.03;33.75;100691.45;102118;1327;61747;-81
2022/12/23 08:43:12;;;;;;;;;;;;;;;19.03;33.78;100684.69;102183;1325;61451;-81
2022/12/23 08:45:38;;;;;;;;;;;;;;;19.03;33.72;100677.04;102161;1333;61490;-81
2022/12/23 08:48:04;;;;;;;;;;;;;;;19.02;33.62;100677.08;102205;1330;61308;-81
2022/12/23 08:50:29;;;;;;;;;;;;;;;19.03;33.79;100688.13;102140;1332;61403;-81
2022/12/23 08:52:55;;;;;;;;;;;;;;;19.01;33.76;100694.25;102187;1326;61379;-81
2022/12/23 08:55:20;;;;;;;;;;;;;;;19.02;33.82;100691.04;102297;1333;61387;-81
2022/12/23 08:57:46;;;;;;;;;;;;;;;19.02;33.81;100689.07;102232;1326;61135;-81
2022/12/23 09:00:11;;;;;;;;;;;;;;;19.01;33.92;100685.88;102215;1332;61277;-81
2022/12/23 09:02:37;;;;;;;;;;;;;;;19.02;33.84;100676.77;102128;1329;61832;-81
2022/12/23 09:05:02;;;;;;;;;;;;;;;19.01;33.83;100672.30;102224;1330;61269;-81
2022/12/23 09:07:28;;;;;;;;;;;;;;;19.01;33.77;100666.25;102233;1332;61404;-81
2022/12/23 09:09:53;;;;;;;;;;;;;;;19.02;33.79;100677.29;102337;1325;61475;-81
2022/12/23 09:12:18;;;;;;;;;;;;;;;19.02;33.69;100685.84;102221;1330;61440;-81
2022/12/23 09:14:46;;;;;;;;;;;;;;;19.02;33.81;100677.11;102192;1326;61257;-81
2022/12/23 09:17:12;;;;;;;;;;;;;;;19.02;33.97;100670.52;102106;1329;61425;-81
2022/12/23 09:19:37;;;;;;;;;;;;;;;19.02;33.87;100659.43;102170;1332;61314;-81
2022/12/23 09:22:03;;;;;;;;;;;;;;;19.01;33.89;100657.35;102167;1329;61411;-81
2022/12/23 09:24:28;;;;;;;;;;;;;;;19.01;33.75;100656.27;102238;1326;61321;-81
2022/12/23 09:26:54;;;;;;;;;;;;;;;19.01;33.79;100653.78;102204;1332;72794;-81
2022/12/23 09:29:19;;;;;;;;;;;;;;;19.01;33.83;100645.97;102145;1325;61325;-81
2022/12/23 09:31:44;;;;;;;;;;;;;;;19.01;33.79;100641.16;102141;1327;61491;-81
2022/12/23 09:34:10;;;;;;;;;;;;;;;19.01;33.80;100636.67;102161;1333;60139;-81
2022/12/23 09:36:35;;;;;;;;;;;;;;;19.01;33.99;100644.52;102209;1330;61334;-81
2022/12/23 09:39:01;;;;;;;;;;;;;;;19.01;33.75;100650.27;102105;1333;61306;-81
2022/12/23 09:41:32;;;;;;;;;;;;;;;19.01;33.80;100649.36;102148;1327;61391;-81
2022/12/23 09:44:16;;;;;;;;;;;;;;;19.00;33.90;100652.77;102161;1328;61334;-81
2022/12/23 09:46:44;;;;;;;;;;;;;;;19.00;33.90;100661.17;102187;1332;61192;-81
2022/12/23 09:49:13;;;;;;;;;;;;;;;19.00;33.98;100662.98;102126;1333;73500;-81
2022/12/23 09:51:39;;;;;;;;;;;;;;;19.00;33.85;100663.70;102158;1332;75457;-81
2022/12/23 09:54:18;;;;;;;;;;;;;;;19.00;33.96;100663.36;102164;1323;61337;-81
2022/12/23 09:56:54;;;;;;;;;;;;;;;18.99;33.82;100655.75;102115;1329;61200;-81
2022/12/23 09:59:25;;;;;;;;;;;;;;;18.98;33.95;100645.27;102140;1326;72548;-81
2022/12/23 10:02:20;;;;;;;;;;;;;;;18.98;33.89;100640.63;102131;1325;75593;-81
2022/12/23 10:04:54;;;;;;;;;;;;;;;18.98;33.97;100642.41;101892;1332;61341;-81
2022/12/23 10:07:43;;;;;;;;;;;;;;;18.98;33.91;100637.42;101829;1332;61162;-81
2022/12/23 10:10:27;;;;;;;;;;;;;;;18.98;33.95;100634.39;101831;1331;73375;-81
2022/12/23 10:12:52;;;;;;;;;;;;;;;18.97;33.96;100637.27;101863;1331;74986;-81
2022/12/23 10:15:22;;;;;;;;;;;;;;;18.98;33.89;100639.23;101800;1335;62502;-81
2022/12/23 10:17:49;;;;;;;;;;;;;;;18.97;33.86;100640.84;101837;1335;61332;-81
2022/12/23 10:20:17;;;;;;;;;;;;;;;18.97;34.09;100639.79;101878;1338;61262;-81
2022/12/23 10:22:43;;;;;;;;;;;;;;;18.97;33.86;100641.03;101834;1339;75564;-81
2022/12/23 10:25:16;;;;;;;;;;;;;;;18.97;33.87;100639.44;101811;1340;61359;-81
2022/12/23 10:27:42;;;;;;;;;;;;;;;18.96;33.82;100636.80;101826;1331;61488;-81
2022/12/23 10:30:20;;;;;;;;;;;;;;;18.96;33.86;100631.10;101842;1337;61333;-81
2022/12/23 10:32:58;;;;;;;;;;;;;;;18.96;33.92;100621.48;101875;1332;74491;-81
2022/12/23 10:35:42;;;;;;;;;;;;;;;18.96;33.88;100618.43;101868;1335;61055;-81
2022/12/23 10:38:26;;;;;;;;;;;;;;;18.96;33.89;100612.77;101902;1338;61405;-81
2022/12/23 10:40:53;;;;;;;;;;;;;;;18.96;33.91;100612.77;101968;1329;72644;-81
2022/12/23 10:43:26;;;;;;;;;;;;;;;18.95;33.92;100612.08;102163;1329;74559;-81
2022/12/23 10:45:51;;;;;;;;;;;;;;;18.95;33.84;100614.77;102165;1329;61335;-81
2022/12/23 10:48:35;;;;;;;;;;;;;;;18.95;33.98;100616.19;102130;1325;61279;-81
2022/12/23 10:51:09;;;;;;;;;;;;;;;18.95;33.92;100613.70;102122;1326;72652;-81
2022/12/23 10:53:38;;;;;;;;;;;;;;;18.95;33.90;100619.23;102110;1329;74588;-81
2022/12/23 10:56:04;;;;;;;;;;;;;;;18.95;33.86;100618.52;102150;1332;61348;-81
2022/12/23 10:58:29;;;;;;;;;;;;;;;18.95;33.92;100625.11;102131;1327;61325;-81
2022/12/23 11:00:56;;;;;;;;;;;;;;;18.95;34.12;100620.11;102131;1325;61395;-81
2022/12/23 11:03:29;;;;;;;;;;;;;;;18.95;33.99;100617.11;102159;1328;61388;-81
2022/12/23 11:05:54;;;;;;;;;;;;;;;18.96;34.12;100614.37;102124;1332;61227;-81
2022/12/23 11:08:20;;;;;;;;;;;;;;;18.95;34.09;100605.14;102120;1329;61390;-81
2022/12/23 11:10:45;;;;;;;;;;;;;;;18.95;34.06;100608.16;102135;1318;61426;-81
2022/12/23 11:13:16;;;;;;;;;;;;;;;18.95;34.12;100609.95;102137;1330;61490;-81
2022/12/23 11:15:41;;;;;;;;;;;;;;;18.95;34.02;100606.77;102285;1329;61399;-80
2022/12/23 11:18:10;;;;;;;;;;;;;;;18.95;34.00;100603.56;102154;1318;61368;-80
2022/12/23 11:20:35;;;;;;;;;;;;;;;18.95;34.11;100601.05;102224;1316;72601;-80
2022/12/23 11:23:01;;;;;;;;;;;;;;;18.94;34.02;100597.52;102155;1330;59323;-80
2022/12/23 11:25:34;;;;;;;;;;;;;;;18.94;34.03;100597.52;102161;1330;61231;-80
2022/12/23 11:28:00;;;;;;;;;;;;;;;18.95;34.12;100604.46;102153;1332;61248;-80
2022/12/23 11:30:25;;;;;;;;;;;;;;;18.94;34.05;100603.77;102275;1329;61302;-80
2022/12/23 11:32:51;;;;;;;;;;;;;;;18.94;34.19;100600.05;102270;1330;61330;-81
2022/12/23 11:35:24;;;;;;;;;;;;;;;18.95;34.01;100598.94;102237;1329;60151;-81
2022/12/23 11:37:49;;;;;;;;;;;;;;;18.95;34.01;100590.20;102224;1332;61101;-80
2022/12/23 11:40:22;;;;;;;;;;;;;;;18.94;34.08;100586.85;102146;1332;61311;-80
2022/12/23 11:42:48;;;;;;;;;;;;;;;18.95;34.08;100587.83;102138;1332;75651;-80
2022/12/23 11:45:20;;;;;;;;;;;;;;;18.95;34.09;100591.45;102195;1329;60090;-81
2022/12/23 11:47:45;;;;;;;;;;;;;;;18.94;34.07;100590.92;102294;1333;61226;-80
2022/12/23 11:50:23;;;;;;;;;;;;;;;18.94;34.00;100590.58;102202;1329;61330;-80
2022/12/23 11:52:52;;;;;;;;;;;;;;;18.95;33.99;100591.45;102198;1333;75601;-81
2022/12/23 11:55:24;;;;;;;;;;;;;;;18.93;34.18;100588.46;102225;1330;61647;-81
2022/12/23 11:57:50;;;;;;;;;;;;;;;18.94;33.93;100587.38;102225;1318;61280;-81
2022/12/23 12:00:19;;;;;;;;;;;;;;;18.94;34.09;100588.64;102190;1332;61314;-80
2022/12/23 12:02:46;;;;;;;;;;;;;;;18.95;34.15;100584.48;102238;1327;75609;-80
2022/12/23 12:05:18;;;;;;;;;;;;;;;18.94;34.10;100580.92;102234;1331;61268;-80
2022/12/23 12:07:44;;;;;;;;;;;;;;;18.94;34.08;100578.80;102236;1321;61224;-80
2022/12/23 12:10:13;;;;;;;;;;;;;;;18.94;34.08;100578.09;102226;1332;60019;-80
2022/12/23 12:12:38;;;;;;;;;;;;;;;18.94;34.06;100577.92;102269;1317;74481;-80
2022/12/23 12:15:04;;;;;;;;;;;;;;;18.93;34.21;100581.34;102168;1332;59273;-80
2022/12/23 12:17:39;;;;;;;;;;;;;;;18.94;34.20;100586.85;102226;1329;61319;-80
2022/12/23 12:20:08;;;;;;;;;;;;;;;18.93;34.02;100587.94;102210;1332;71519;-80
2022/12/23 12:22:37;;;;;;;;;;;;;;;18.93;34.10;100584.55;102168;1333;74672;-80
2022/12/23 12:25:16;;;;;;;;;;;;;;;18.93;34.22;100586.69;102177;1332;61378;-80
2022/12/23 12:27:43;;;;;;;;;;;;;;;18.93;34.18;100589.38;102136;1332;61235;-80
2022/12/23 12:30:11;;;;;;;;;;;;;;;18.93;34.29;100592.95;102133;1326;61182;-80
2022/12/23 12:32:49;;;;;;;;;;;;;;;18.93;34.21;100597.23;102115;1329;75663;-80
2022/12/23 12:35:32;;;;;;;;;;;;;;;18.93;34.21;100597.95;102245;1324;61312;-80
2022/12/23 12:38:05;;;;;;;;;;;;;;;18.92;34.04;100600.66;102178;1326;61213;-80
2022/12/23 12:40:32;;;;;;;;;;;;;;;18.92;34.09;100602.84;102175;1326;70965;-80
2022/12/23 12:43:10;;;;;;;;;;;;;;;18.91;34.22;100605.54;102161;1327;75475;-80
2022/12/23 12:45:55;;;;;;;;;;;;;;;18.91;34.16;100604.85;102201;1326;61268;-80
2022/12/23 12:48:29;;;;;;;;;;;;;;;18.91;34.19;100600.60;102155;1326;61214;-80
2022/12/23 12:51:10;;;;;;;;;;;;;;;18.91;34.32;100602.55;102166;1332;72607;-80
2022/12/23 12:53:36;;;;;;;;;;;;;;;18.91;34.16;100609.34;102199;1323;75447;-80